sensor_id;sensor_type;location;lat;lon;timestamp;temperature;humidity
21019;DHT22;10667;51.056;3.732;2022-11-15T00:00:27;11.60;99.90
21019;DHT22;10667;51.056;3.732;2022-11-15T00:02:53;11.50;99.90
21019;DHT22;10667;51.056;3.732;2022-11-15T00:05:19;11.70;99.90
21019;DHT22;10667;51.056;3.732;2022-11-15T00:07:45;11.80;99.90
21019;DHT22;10667;51.056;3.732;2022-11-15T00:10:10;11.80;99.90
21019;DHT22;10667;51.056;3.732;2022-11-15T00:12:36;11.80;99.90
21019;DHT22;10667;51.056;3.732;2022-11-15T00:15:02;11.80;99.90
21019;DHT22;10667;51.056;3.732;2022-11-15T00:17:27;11.90;99.90
21019;DHT22;10667;51.056;3.732;2022-11-15T00:19:53;11.90;99.90
21019;DHT22;10667;51.056;3.732;2022-11-15T00:22:19;11.90;99.90
21019;DHT22;10667;51.056;3.732;2022-11-15T00:24:44;12.00;99.90
21019;DHT22;10667;51.056;3.732;2022-11-15T00:27:10;12.00;99.90
21019;DHT22;10667;51.056;3.732;2022-11-15T00:29:36;12.00;99.90
21019;DHT22;10667;51.056;3.732;2022-11-15T00:32:04;12.00;99.90
21019;DHT22;10667;51.056;3.732;2022-11-15T00:34:30;12.10;99.90
21019;DHT22;10667;51.056;3.732;2022-11-15T00:36:56;12.10;99.90
21019;DHT22;10667;51.056;3.732;2022-11-15T00:39:21;12.00;99.90
21019;DHT22;10667;51.056;3.732;2022-11-15T00:41:47;11.90;99.90
21019;DHT22;10667;51.056;3.732;2022-11-15T00:44:13;11.90;99.90
21019;DHT22;10667;51.056;3.732;2022-11-15T00:46:38;11.90;99.90
21019;DHT22;10667;51.056;3.732;2022-11-15T00:49:04;11.90;99.90
21019;DHT22;10667;51.056;3.732;2022-11-15T00:51:30;12.00;99.90
21019;DHT22;10667;51.056;3.732;2022-11-15T00:53:55;12.00;99.90
21019;DHT22;10667;51.056;3.732;2022-11-15T00:56:21;12.00;99.90
21019;DHT22;10667;51.056;3.732;2022-11-15T00:58:47;12.00;99.90
21019;DHT22;10667;51.056;3.732;2022-11-15T01:01:14;12.00;99.90
21019;DHT22;10667;51.056;3.732;2022-11-15T01:03:40;12.00;99.90
21019;DHT22;10667;51.056;3.732;2022-11-15T01:06:07;12.10;99.90
21019;DHT22;10667;51.056;3.732;2022-11-15T01:08:34;12.20;99.90
21019;DHT22;10667;51.056;3.732;2022-11-15T01:11:04;12.10;99.90
21019;DHT22;10667;51.056;3.732;2022-11-15T01:13:32;12.10;99.90
21019;DHT22;10667;51.056;3.732;2022-11-15T01:15:58;12.10;99.90
21019;DHT22;10667;51.056;3.732;2022-11-15T01:18:24;12.20;99.90
21019;DHT22;10667;51.056;3.732;2022-11-15T01:20:50;12.10;99.90
21019;DHT22;10667;51.056;3.732;2022-11-15T01:23:16;12.20;99.90
21019;DHT22;10667;51.056;3.732;2022-11-15T01:25:41;12.20;99.90
21019;DHT22;10667;51.056;3.732;2022-11-15T01:28:07;12.20;99.90
21019;DHT22;10667;51.056;3.732;2022-11-15T01:30:33;12.20;99.90
21019;DHT22;10667;51.056;3.732;2022-11-15T01:32:59;12.20;99.90
21019;DHT22;10667;51.056;3.732;2022-11-15T01:35:24;12.10;99.90
21019;DHT22;10667;51.056;3.732;2022-11-15T01:37:50;12.00;99.90
21019;DHT22;10667;51.056;3.732;2022-11-15T01:40:16;11.90;99.90
21019;DHT22;10667;51.056;3.732;2022-11-15T01:42:41;12.00;99.90
21019;DHT22;10667;51.056;3.732;2022-11-15T01:45:14;12.10;99.90
21019;DHT22;10667;51.056;3.732;2022-11-15T01:47:46;12.10;99.90
21019;DHT22;10667;51.056;3.732;2022-11-15T01:50:16;12.20;99.90
21019;DHT22;10667;51.056;3.732;2022-11-15T01:52:42;12.10;99.90
21019;DHT22;10667;51.056;3.732;2022-11-15T01:55:15;12.20;99.90
21019;DHT22;10667;51.056;3.732;2022-11-15T01:57:45;12.20;99.90
21019;DHT22;10667;51.056;3.732;2022-11-15T02:00:12;12.10;99.90
21019;DHT22;10667;51.056;3.732;2022-11-15T02:02:38;12.00;99.90
21019;DHT22;10667;51.056;3.732;2022-11-15T02:05:04;12.00;99.90
21019;DHT22;10667;51.056;3.732;2022-11-15T02:07:31;12.10;99.90
21019;DHT22;10667;51.056;3.732;2022-11-15T02:10:18;12.20;99.90
21019;DHT22;10667;51.056;3.732;2022-11-15T02:12:45;12.10;99.90
21019;DHT22;10667;51.056;3.732;2022-11-15T02:15:12;12.10;99.90
21019;DHT22;10667;51.056;3.732;2022-11-15T02:18:07;12.10;99.90
21019;DHT22;10667;51.056;3.732;2022-11-15T02:32:19;12.20;99.90
21019;DHT22;10667;51.056;3.732;2022-11-15T02:34:52;12.30;99.90
21019;DHT22;10667;51.056;3.732;2022-11-15T02:40:41;12.10;99.90
21019;DHT22;10667;51.056;3.732;2022-11-15T02:43:12;12.00;99.90
21019;DHT22;10667;51.056;3.732;2022-11-15T02:49:14;12.00;99.90
21019;DHT22;10667;51.056;3.732;2022-11-15T02:51:41;12.10;99.90
21019;DHT22;10667;51.056;3.732;2022-11-15T02:54:13;12.00;99.90
21019;DHT22;10667;51.056;3.732;2022-11-15T02:56:39;12.00;99.90
21019;DHT22;10667;51.056;3.732;2022-11-15T02:59:13;12.00;99.90
21019;DHT22;10667;51.056;3.732;2022-11-15T03:02:07;12.00;99.90
21019;DHT22;10667;51.056;3.732;2022-11-15T03:07:15;12.00;99.90
21019;DHT22;10667;51.056;3.732;2022-11-15T03:15:27;11.90;99.90
21019;DHT22;10667;51.056;3.732;2022-11-15T03:18:06;11.90;99.90
21019;DHT22;10667;51.056;3.732;2022-11-15T03:20:36;12.00;99.90
21019;DHT22;10667;51.056;3.732;2022-11-15T03:23:06;11.90;99.90
21019;DHT22;10667;51.056;3.732;2022-11-15T03:25:36;11.90;99.90
21019;DHT22;10667;51.056;3.732;2022-11-15T03:28:06;11.80;99.90
21019;DHT22;10667;51.056;3.732;2022-11-15T03:30:34;11.80;99.90
21019;DHT22;10667;51.056;3.732;2022-11-15T03:33:02;11.90;99.90
21019;DHT22;10667;51.056;3.732;2022-11-15T03:35:33;11.80;99.90
21019;DHT22;10667;51.056;3.732;2022-11-15T03:38:15;11.70;99.90
21019;DHT22;10667;51.056;3.732;2022-11-15T03:41:27;11.70;99.90
21019;DHT22;10667;51.056;3.732;2022-11-15T03:43:44;11.70;99.90
21019;DHT22;10667;51.056;3.732;2022-11-15T03:46:26;11.70;99.90
21019;DHT22;10667;51.056;3.732;2022-11-15T03:49:00;11.60;99.90
21019;DHT22;10667;51.056;3.732;2022-11-15T03:51:29;11.80;99.90
21019;DHT22;10667;51.056;3.732;2022-11-15T03:53:55;11.80;99.90
21019;DHT22;10667;51.056;3.732;2022-11-15T03:56:21;11.80;99.90
21019;DHT22;10667;51.056;3.732;2022-11-15T03:58:46;11.70;99.90
21019;DHT22;10667;51.056;3.732;2022-11-15T04:01:12;11.60;99.90
21019;DHT22;10667;51.056;3.732;2022-11-15T04:03:38;11.60;99.90
21019;DHT22;10667;51.056;3.732;2022-11-15T04:06:03;11.60;99.90
21019;DHT22;10667;51.056;3.732;2022-11-15T04:08:29;11.50;99.90
21019;DHT22;10667;51.056;3.732;2022-11-15T04:10:55;11.50;99.90
21019;DHT22;10667;51.056;3.732;2022-11-15T04:13:20;11.50;99.90
21019;DHT22;10667;51.056;3.732;2022-11-15T04:15:46;11.40;99.90
21019;DHT22;10667;51.056;3.732;2022-11-15T04:18:11;11.40;99.90
21019;DHT22;10667;51.056;3.732;2022-11-15T04:20:37;11.40;99.90
21019;DHT22;10667;51.056;3.732;2022-11-15T04:23:23;11.20;99.90
21019;DHT22;10667;51.056;3.732;2022-11-15T04:26:25;11.20;99.90
21019;DHT22;10667;51.056;3.732;2022-11-15T04:28:51;11.10;99.90
21019;DHT22;10667;51.056;3.732;2022-11-15T04:31:34;11.10;99.90
21019;DHT22;10667;51.056;3.732;2022-11-15T04:34:00;11.00;99.90
21019;DHT22;10667;51.056;3.732;2022-11-15T04:36:26;11.00;99.90
21019;DHT22;10667;51.056;3.732;2022-11-15T04:39:10;11.00;99.90
21019;DHT22;10667;51.056;3.732;2022-11-15T04:41:36;11.00;99.90
21019;DHT22;10667;51.056;3.732;2022-11-15T04:44:02;10.90;99.90
21019;DHT22;10667;51.056;3.732;2022-11-15T04:46:28;10.90;99.90
21019;DHT22;10667;51.056;3.732;2022-11-15T04:48:54;11.00;99.90
21019;DHT22;10667;51.056;3.732;2022-11-15T04:51:20;10.90;99.90
21019;DHT22;10667;51.056;3.732;2022-11-15T04:53:45;10.90;99.90
21019;DHT22;10667;51.056;3.732;2022-11-15T04:56:11;10.90;99.90
21019;DHT22;10667;51.056;3.732;2022-11-15T04:58:37;10.80;99.90
21019;DHT22;10667;51.056;3.732;2022-11-15T05:01:11;10.80;99.90
21019;DHT22;10667;51.056;3.732;2022-11-15T05:03:37;10.80;99.90
21019;DHT22;10667;51.056;3.732;2022-11-15T05:06:21;10.80;99.90
21019;DHT22;10667;51.056;3.732;2022-11-15T05:08:47;10.70;99.90
21019;DHT22;10667;51.056;3.732;2022-11-15T05:11:13;10.70;99.90
21019;DHT22;10667;51.056;3.732;2022-11-15T05:13:38;10.80;99.90
21019;DHT22;10667;51.056;3.732;2022-11-15T05:16:04;10.80;99.90
21019;DHT22;10667;51.056;3.732;2022-11-15T05:18:30;10.70;99.90
21019;DHT22;10667;51.056;3.732;2022-11-15T05:20:56;10.70;99.90
21019;DHT22;10667;51.056;3.732;2022-11-15T05:23:27;10.60;99.90
21019;DHT22;10667;51.056;3.732;2022-11-15T05:25:53;10.60;99.90
21019;DHT22;10667;51.056;3.732;2022-11-15T05:28:19;10.60;99.90
21019;DHT22;10667;51.056;3.732;2022-11-15T05:30:44;10.60;99.90
21019;DHT22;10667;51.056;3.732;2022-11-15T05:33:10;10.70;99.90
21019;DHT22;10667;51.056;3.732;2022-11-15T05:35:41;10.70;99.90
21019;DHT22;10667;51.056;3.732;2022-11-15T05:38:07;10.60;99.90
21019;DHT22;10667;51.056;3.732;2022-11-15T05:40:34;10.60;99.90
21019;DHT22;10667;51.056;3.732;2022-11-15T05:43:00;10.60;99.90
21019;DHT22;10667;51.056;3.732;2022-11-15T05:45:28;10.60;99.90
21019;DHT22;10667;51.056;3.732;2022-11-15T05:47:56;10.60;99.90
21019;DHT22;10667;51.056;3.732;2022-11-15T05:50:23;10.50;99.90
21019;DHT22;10667;51.056;3.732;2022-11-15T05:52:49;10.40;99.90
21019;DHT22;10667;51.056;3.732;2022-11-15T05:55:15;10.30;99.90
21019;DHT22;10667;51.056;3.732;2022-11-15T05:57:41;10.20;99.90
21019;DHT22;10667;51.056;3.732;2022-11-15T06:00:07;10.20;99.90
21019;DHT22;10667;51.056;3.732;2022-11-15T06:02:34;10.20;99.90
21019;DHT22;10667;51.056;3.732;2022-11-15T06:05:00;10.20;99.90
21019;DHT22;10667;51.056;3.732;2022-11-15T06:07:26;10.20;99.90
21019;DHT22;10667;51.056;3.732;2022-11-15T06:09:52;10.20;99.90
21019;DHT22;10667;51.056;3.732;2022-11-15T06:12:17;10.30;99.90
21019;DHT22;10667;51.056;3.732;2022-11-15T06:14:43;10.30;99.90
21019;DHT22;10667;51.056;3.732;2022-11-15T06:17:09;10.30;99.90
21019;DHT22;10667;51.056;3.732;2022-11-15T06:19:34;10.30;99.90
21019;DHT22;10667;51.056;3.732;2022-11-15T06:22:00;10.20;99.90
21019;DHT22;10667;51.056;3.732;2022-11-15T06:24:26;10.20;99.90
21019;DHT22;10667;51.056;3.732;2022-11-15T06:26:52;10.10;99.90
21019;DHT22;10667;51.056;3.732;2022-11-15T06:29:17;10.20;99.90
21019;DHT22;10667;51.056;3.732;2022-11-15T06:31:43;10.20;99.90
21019;DHT22;10667;51.056;3.732;2022-11-15T06:34:09;10.20;99.90
21019;DHT22;10667;51.056;3.732;2022-11-15T06:36:35;10.20;99.90
21019;DHT22;10667;51.056;3.732;2022-11-15T06:39:05;10.20;99.90
21019;DHT22;10667;51.056;3.732;2022-11-15T06:41:34;10.20;99.90
21019;DHT22;10667;51.056;3.732;2022-11-15T06:44:00;10.30;99.90
21019;DHT22;10667;51.056;3.732;2022-11-15T06:46:26;10.10;99.90
21019;DHT22;10667;51.056;3.732;2022-11-15T06:48:53;10.10;99.90
21019;DHT22;10667;51.056;3.732;2022-11-15T06:51:19;10.10;99.90
21019;DHT22;10667;51.056;3.732;2022-11-15T06:53:45;10.00;99.90
21019;DHT22;10667;51.056;3.732;2022-11-15T06:56:10;10.10;99.90
21019;DHT22;10667;51.056;3.732;2022-11-15T06:58:36;10.00;99.90
21019;DHT22;10667;51.056;3.732;2022-11-15T07:01:10;10.10;99.90
21019;DHT22;10667;51.056;3.732;2022-11-15T07:03:37;10.00;99.90
21019;DHT22;10667;51.056;3.732;2022-11-15T07:06:04;10.00;99.90
21019;DHT22;10667;51.056;3.732;2022-11-15T07:08:30;10.10;99.90
21019;DHT22;10667;51.056;3.732;2022-11-15T07:11:00;10.10;99.90
21019;DHT22;10667;51.056;3.732;2022-11-15T07:13:28;10.20;99.90
21019;DHT22;10667;51.056;3.732;2022-11-15T07:15:54;10.30;99.90
21019;DHT22;10667;51.056;3.732;2022-11-15T07:18:20;10.20;99.90
21019;DHT22;10667;51.056;3.732;2022-11-15T07:20:46;10.20;99.90
21019;DHT22;10667;51.056;3.732;2022-11-15T07:23:12;10.30;99.90
21019;DHT22;10667;51.056;3.732;2022-11-15T07:25:37;10.30;99.90
21019;DHT22;10667;51.056;3.732;2022-11-15T07:28:03;10.30;99.90
21019;DHT22;10667;51.056;3.732;2022-11-15T07:30:29;10.30;99.90
21019;DHT22;10667;51.056;3.732;2022-11-15T07:32:56;10.20;99.90
21019;DHT22;10667;51.056;3.732;2022-11-15T07:35:22;10.20;99.90
21019;DHT22;10667;51.056;3.732;2022-11-15T07:37:58;10.20;99.90
21019;DHT22;10667;51.056;3.732;2022-11-15T07:40:25;10.30;99.90
21019;DHT22;10667;51.056;3.732;2022-11-15T07:42:51;10.30;99.90
21019;DHT22;10667;51.056;3.732;2022-11-15T07:45:22;10.30;99.90
21019;DHT22;10667;51.056;3.732;2022-11-15T07:47:49;10.40;99.90
21019;DHT22;10667;51.056;3.732;2022-11-15T07:50:16;10.30;99.90
21019;DHT22;10667;51.056;3.732;2022-11-15T07:52:41;10.30;99.90
21019;DHT22;10667;51.056;3.732;2022-11-15T07:55:08;10.30;99.90
21019;DHT22;10667;51.056;3.732;2022-11-15T07:57:34;10.40;99.90
21019;DHT22;10667;51.056;3.732;2022-11-15T07:59:59;10.40;99.90
21019;DHT22;10667;51.056;3.732;2022-11-15T08:02:25;10.30;99.90
21019;DHT22;10667;51.056;3.732;2022-11-15T08:04:50;10.30;99.90
21019;DHT22;10667;51.056;3.732;2022-11-15T08:07:16;10.30;99.90
21019;DHT22;10667;51.056;3.732;2022-11-15T08:09:42;10.30;99.90
21019;DHT22;10667;51.056;3.732;2022-11-15T08:12:08;10.30;99.90
21019;DHT22;10667;51.056;3.732;2022-11-15T08:14:34;10.30;99.90
21019;DHT22;10667;51.056;3.732;2022-11-15T08:17:00;10.30;99.90
21019;DHT22;10667;51.056;3.732;2022-11-15T08:19:25;10.40;99.90
21019;DHT22;10667;51.056;3.732;2022-11-15T08:21:51;10.30;99.90
21019;DHT22;10667;51.056;3.732;2022-11-15T08:24:16;10.40;99.90
21019;DHT22;10667;51.056;3.732;2022-11-15T08:26:42;10.50;99.90
21019;DHT22;10667;51.056;3.732;2022-11-15T08:29:08;10.60;99.90
21019;DHT22;10667;51.056;3.732;2022-11-15T08:31:34;10.60;99.90
21019;DHT22;10667;51.056;3.732;2022-11-15T08:34:02;10.60;99.90
21019;DHT22;10667;51.056;3.732;2022-11-15T08:36:28;10.70;99.90
21019;DHT22;10667;51.056;3.732;2022-11-15T08:38:53;10.70;99.90
21019;DHT22;10667;51.056;3.732;2022-11-15T08:41:34;10.80;99.90
21019;DHT22;10667;51.056;3.732;2022-11-15T08:44:01;10.80;99.90
21019;DHT22;10667;51.056;3.732;2022-11-15T08:46:27;10.90;99.90
21019;DHT22;10667;51.056;3.732;2022-11-15T08:48:52;10.80;99.90
21019;DHT22;10667;51.056;3.732;2022-11-15T08:51:18;10.90;99.90
21019;DHT22;10667;51.056;3.732;2022-11-15T08:53:44;10.90;99.90
21019;DHT22;10667;51.056;3.732;2022-11-15T08:56:11;10.90;99.90
21019;DHT22;10667;51.056;3.732;2022-11-15T08:58:37;10.90;99.90
21019;DHT22;10667;51.056;3.732;2022-11-15T09:01:03;11.00;99.90
21019;DHT22;10667;51.056;3.732;2022-11-15T09:03:30;11.10;99.90
21019;DHT22;10667;51.056;3.732;2022-11-15T09:05:57;11.20;99.90
21019;DHT22;10667;51.056;3.732;2022-11-15T09:08:23;11.20;99.90
21019;DHT22;10667;51.056;3.732;2022-11-15T09:10:49;11.20;99.90
21019;DHT22;10667;51.056;3.732;2022-11-15T09:13:15;11.30;99.90
21019;DHT22;10667;51.056;3.732;2022-11-15T09:15:41;11.30;99.90
21019;DHT22;10667;51.056;3.732;2022-11-15T09:18:06;11.30;99.90
21019;DHT22;10667;51.056;3.732;2022-11-15T09:20:33;11.20;99.90
21019;DHT22;10667;51.056;3.732;2022-11-15T09:23:02;11.20;99.90
21019;DHT22;10667;51.056;3.732;2022-11-15T09:25:29;11.20;99.90
21019;DHT22;10667;51.056;3.732;2022-11-15T09:27:55;11.30;99.90
21019;DHT22;10667;51.056;3.732;2022-11-15T09:30:21;11.30;99.90
21019;DHT22;10667;51.056;3.732;2022-11-15T09:32:47;11.30;99.90
21019;DHT22;10667;51.056;3.732;2022-11-15T09:35:12;11.40;99.90
21019;DHT22;10667;51.056;3.732;2022-11-15T09:37:38;11.40;99.90
21019;DHT22;10667;51.056;3.732;2022-11-15T09:40:04;11.50;99.90
21019;DHT22;10667;51.056;3.732;2022-11-15T09:45:30;11.60;99.90
21019;DHT22;10667;51.056;3.732;2022-11-15T09:53:04;11.80;99.90
21019;DHT22;10667;51.056;3.732;2022-11-15T09:55:40;11.80;99.90
21019;DHT22;10667;51.056;3.732;2022-11-15T09:58:23;11.80;99.90
21019;DHT22;10667;51.056;3.732;2022-11-15T10:00:52;11.90;99.90
21019;DHT22;10667;51.056;3.732;2022-11-15T10:03:34;11.90;99.90
21019;DHT22;10667;51.056;3.732;2022-11-15T10:06:03;11.90;99.90
21019;DHT22;10667;51.056;3.732;2022-11-15T10:08:58;11.90;99.90
21019;DHT22;10667;51.056;3.732;2022-11-15T10:11:29;11.90;99.90
21019;DHT22;10667;51.056;3.732;2022-11-15T10:14:00;12.00;99.90
21019;DHT22;10667;51.056;3.732;2022-11-15T10:24:16;12.00;99.90
21019;DHT22;10667;51.056;3.732;2022-11-15T10:26:48;12.00;99.90
21019;DHT22;10667;51.056;3.732;2022-11-15T10:29:24;12.20;99.90
21019;DHT22;10667;51.056;3.732;2022-11-15T10:31:50;12.20;99.90
21019;DHT22;10667;51.056;3.732;2022-11-15T10:34:21;12.20;99.90
21019;DHT22;10667;51.056;3.732;2022-11-15T10:36:58;12.20;99.90
21019;DHT22;10667;51.056;3.732;2022-11-15T10:39:25;12.20;99.90
21019;DHT22;10667;51.056;3.732;2022-11-15T10:41:50;12.30;99.90
21019;DHT22;10667;51.056;3.732;2022-11-15T10:46:44;12.30;99.90
21019;DHT22;10667;51.056;3.732;2022-11-15T10:49:25;12.40;99.90
21019;DHT22;10667;51.056;3.732;2022-11-15T10:52:18;12.40;99.90
21019;DHT22;10667;51.056;3.732;2022-11-15T10:54:50;12.40;99.90
21019;DHT22;10667;51.056;3.732;2022-11-15T10:57:23;12.50;99.90
21019;DHT22;10667;51.056;3.732;2022-11-15T10:59:53;12.50;99.90
21019;DHT22;10667;51.056;3.732;2022-11-15T11:04:57;12.50;99.90
21019;DHT22;10667;51.056;3.732;2022-11-15T11:07:26;12.60;99.90
21019;DHT22;10667;51.056;3.732;2022-11-15T11:10:18;12.70;99.90
21019;DHT22;10667;51.056;3.732;2022-11-15T11:12:44;12.80;99.90
21019;DHT22;10667;51.056;3.732;2022-11-15T11:15:13;12.80;99.90
21019;DHT22;10667;51.056;3.732;2022-11-15T11:20:37;12.80;99.90
21019;DHT22;10667;51.056;3.732;2022-11-15T11:29:45;13.00;99.90
21019;DHT22;10667;51.056;3.732;2022-11-15T11:32:22;13.00;99.90
21019;DHT22;10667;51.056;3.732;2022-11-15T11:35:05;13.10;99.90
21019;DHT22;10667;51.056;3.732;2022-11-15T11:37:50;13.10;99.90
21019;DHT22;10667;51.056;3.732;2022-11-15T11:51:43;13.30;99.90
21019;DHT22;10667;51.056;3.732;2022-11-15T11:56:50;13.30;99.90
21019;DHT22;10667;51.056;3.732;2022-11-15T11:59:42;13.30;99.90
21019;DHT22;10667;51.056;3.732;2022-11-15T12:03:02;13.30;99.90
21019;DHT22;10667;51.056;3.732;2022-11-15T12:05:32;13.30;99.90
21019;DHT22;10667;51.056;3.732;2022-11-15T12:10:54;13.40;99.90
21019;DHT22;10667;51.056;3.732;2022-11-15T12:13:26;13.40;99.90
21019;DHT22;10667;51.056;3.732;2022-11-15T12:16:08;13.40;99.90
21019;DHT22;10667;51.056;3.732;2022-11-15T12:18:35;13.50;99.90
21019;DHT22;10667;51.056;3.732;2022-11-15T12:23:53;13.50;99.90
21019;DHT22;10667;51.056;3.732;2022-11-15T12:26:24;13.40;99.90
21019;DHT22;10667;51.056;3.732;2022-11-15T12:28:55;13.50;99.90
21019;DHT22;10667;51.056;3.732;2022-11-15T12:33:58;13.50;99.90
21019;DHT22;10667;51.056;3.732;2022-11-15T12:39:09;13.50;99.90
21019;DHT22;10667;51.056;3.732;2022-11-15T12:41:43;13.50;99.90
21019;DHT22;10667;51.056;3.732;2022-11-15T12:47:00;13.60;99.90
21019;DHT22;10667;51.056;3.732;2022-11-15T13:17:43;13.60;99.90
21019;DHT22;10667;51.056;3.732;2022-11-15T13:20:27;13.70;99.90
21019;DHT22;10667;51.056;3.732;2022-11-15T13:23:02;13.70;99.90
21019;DHT22;10667;51.056;3.732;2022-11-15T13:33:47;13.60;99.90
21019;DHT22;10667;51.056;3.732;2022-11-15T13:36:20;13.60;99.90
21019;DHT22;10667;51.056;3.732;2022-11-15T13:38:55;13.50;99.90
21019;DHT22;10667;51.056;3.732;2022-11-15T13:41:24;13.50;99.90
21019;DHT22;10667;51.056;3.732;2022-11-15T13:43:53;13.50;99.90
21019;DHT22;10667;51.056;3.732;2022-11-15T13:46:36;13.60;99.90
21019;DHT22;10667;51.056;3.732;2022-11-15T13:49:09;13.50;99.90
21019;DHT22;10667;51.056;3.732;2022-11-15T13:51:44;13.60;99.90
21019;DHT22;10667;51.056;3.732;2022-11-15T13:54:23;13.60;99.90
21019;DHT22;10667;51.056;3.732;2022-11-15T13:59:35;13.60;99.90
21019;DHT22;10667;51.056;3.732;2022-11-15T14:02:13;13.50;99.90
21019;DHT22;10667;51.056;3.732;2022-11-15T14:04:48;13.50;99.90
21019;DHT22;10667;51.056;3.732;2022-11-15T14:07:19;13.50;99.90
21019;DHT22;10667;51.056;3.732;2022-11-15T14:09:46;13.50;99.90
21019;DHT22;10667;51.056;3.732;2022-11-15T14:14:47;13.30;99.90
21019;DHT22;10667;51.056;3.732;2022-11-15T14:19:54;13.30;99.90
21019;DHT22;10667;51.056;3.732;2022-11-15T14:22:25;13.30;99.90
21019;DHT22;10667;51.056;3.732;2022-11-15T14:25:19;13.20;99.90
21019;DHT22;10667;51.056;3.732;2022-11-15T14:30:33;13.10;99.90
21019;DHT22;10667;51.056;3.732;2022-11-15T14:32:58;13.10;99.90
21019;DHT22;10667;51.056;3.732;2022-11-15T14:35:24;13.00;99.90
21019;DHT22;10667;51.056;3.732;2022-11-15T14:37:50;13.00;99.90
21019;DHT22;10667;51.056;3.732;2022-11-15T14:40:20;12.90;99.90
21019;DHT22;10667;51.056;3.732;2022-11-15T14:42:48;12.90;99.90
21019;DHT22;10667;51.056;3.732;2022-11-15T14:45:18;12.90;99.90
21019;DHT22;10667;51.056;3.732;2022-11-15T14:47:44;12.80;99.90
21019;DHT22;10667;51.056;3.732;2022-11-15T14:50:15;12.70;99.90
21019;DHT22;10667;51.056;3.732;2022-11-15T14:52:41;12.70;99.90
21019;DHT22;10667;51.056;3.732;2022-11-15T14:57:36;12.70;99.90
21019;DHT22;10667;51.056;3.732;2022-11-15T15:00:03;12.70;99.90
21019;DHT22;10667;51.056;3.732;2022-11-15T15:02:29;12.80;99.90
21019;DHT22;10667;51.056;3.732;2022-11-15T15:04:55;12.70;99.90
21019;DHT22;10667;51.056;3.732;2022-11-15T15:07:21;12.70;99.90
21019;DHT22;10667;51.056;3.732;2022-11-15T15:09:47;12.60;99.90
21019;DHT22;10667;51.056;3.732;2022-11-15T15:12:19;12.50;99.90
21019;DHT22;10667;51.056;3.732;2022-11-15T15:14:47;12.40;99.90
21019;DHT22;10667;51.056;3.732;2022-11-15T15:17:13;12.40;99.90
21019;DHT22;10667;51.056;3.732;2022-11-15T15:19:39;12.40;99.90
21019;DHT22;10667;51.056;3.732;2022-11-15T15:22:05;12.40;99.90
21019;DHT22;10667;51.056;3.732;2022-11-15T15:24:31;12.40;99.90
21019;DHT22;10667;51.056;3.732;2022-11-15T15:26:57;12.40;99.90
21019;DHT22;10667;51.056;3.732;2022-11-15T15:29:23;12.40;99.90
21019;DHT22;10667;51.056;3.732;2022-11-15T15:31:48;12.40;99.90
21019;DHT22;10667;51.056;3.732;2022-11-15T15:34:14;12.50;99.90
21019;DHT22;10667;51.056;3.732;2022-11-15T15:36:40;12.50;99.90
21019;DHT22;10667;51.056;3.732;2022-11-15T15:39:09;12.50;99.90
21019;DHT22;10667;51.056;3.732;2022-11-15T15:41:35;12.50;99.90
21019;DHT22;10667;51.056;3.732;2022-11-15T15:44:01;12.60;99.90
21019;DHT22;10667;51.056;3.732;2022-11-15T15:46:27;12.50;99.90
21019;DHT22;10667;51.056;3.732;2022-11-15T15:48:52;12.50;99.90
21019;DHT22;10667;51.056;3.732;2022-11-15T15:51:18;12.50;99.90
21019;DHT22;10667;51.056;3.732;2022-11-15T15:53:44;12.50;99.90
21019;DHT22;10667;51.056;3.732;2022-11-15T15:56:10;12.60;99.90
21019;DHT22;10667;51.056;3.732;2022-11-15T15:58:35;12.50;99.90
21019;DHT22;10667;51.056;3.732;2022-11-15T16:01:01;12.50;99.90
21019;DHT22;10667;51.056;3.732;2022-11-15T16:03:27;12.60;99.90
21019;DHT22;10667;51.056;3.732;2022-11-15T16:05:53;12.60;99.90
21019;DHT22;10667;51.056;3.732;2022-11-15T16:08:22;12.60;99.90
21019;DHT22;10667;51.056;3.732;2022-11-15T16:10:48;12.60;99.90
21019;DHT22;10667;51.056;3.732;2022-11-15T16:13:14;12.60;99.90
21019;DHT22;10667;51.056;3.732;2022-11-15T16:15:40;12.60;99.90
21019;DHT22;10667;51.056;3.732;2022-11-15T16:18:14;12.60;99.90
21019;DHT22;10667;51.056;3.732;2022-11-15T16:20:42;12.60;99.90
21019;DHT22;10667;51.056;3.732;2022-11-15T16:23:14;12.70;99.90
21019;DHT22;10667;51.056;3.732;2022-11-15T16:25:44;12.70;99.90
21019;DHT22;10667;51.056;3.732;2022-11-15T16:28:30;12.70;99.90
21019;DHT22;10667;51.056;3.732;2022-11-15T16:31:09;12.70;99.90
21019;DHT22;10667;51.056;3.732;2022-11-15T16:33:35;12.70;99.90
21019;DHT22;10667;51.056;3.732;2022-11-15T16:36:02;12.70;99.90
21019;DHT22;10667;51.056;3.732;2022-11-15T16:38:29;12.60;99.90
21019;DHT22;10667;51.056;3.732;2022-11-15T16:40:56;12.70;99.90
21019;DHT22;10667;51.056;3.732;2022-11-15T16:43:23;12.80;99.90
21019;DHT22;10667;51.056;3.732;2022-11-15T16:45:49;12.80;99.90
21019;DHT22;10667;51.056;3.732;2022-11-15T16:48:23;12.80;99.90
21019;DHT22;10667;51.056;3.732;2022-11-15T16:50:50;12.90;99.90
21019;DHT22;10667;51.056;3.732;2022-11-15T16:53:16;12.90;99.90
21019;DHT22;10667;51.056;3.732;2022-11-15T16:55:41;12.90;99.90
21019;DHT22;10667;51.056;3.732;2022-11-15T16:58:08;12.80;99.90
21019;DHT22;10667;51.056;3.732;2022-11-15T17:00:34;12.90;99.90
21019;DHT22;10667;51.056;3.732;2022-11-15T17:03:00;12.90;99.90
21019;DHT22;10667;51.056;3.732;2022-11-15T17:05:28;12.90;99.90
21019;DHT22;10667;51.056;3.732;2022-11-15T17:07:54;12.90;99.90
21019;DHT22;10667;51.056;3.732;2022-11-15T17:10:24;12.90;99.90
21019;DHT22;10667;51.056;3.732;2022-11-15T17:12:51;12.80;99.90
21019;DHT22;10667;51.056;3.732;2022-11-15T17:15:17;12.90;99.90
21019;DHT22;10667;51.056;3.732;2022-11-15T17:17:43;12.90;99.90
21019;DHT22;10667;51.056;3.732;2022-11-15T17:20:17;12.80;99.90
21019;DHT22;10667;51.056;3.732;2022-11-15T17:22:43;12.80;99.90
21019;DHT22;10667;51.056;3.732;2022-11-15T17:25:09;12.80;99.90
21019;DHT22;10667;51.056;3.732;2022-11-15T17:27:35;12.70;99.90
21019;DHT22;10667;51.056;3.732;2022-11-15T17:30:01;12.70;99.90
21019;DHT22;10667;51.056;3.732;2022-11-15T17:32:27;12.90;99.90
21019;DHT22;10667;51.056;3.732;2022-11-15T17:34:52;12.90;99.90
21019;DHT22;10667;51.056;3.732;2022-11-15T17:37:18;12.90;99.90
21019;DHT22;10667;51.056;3.732;2022-11-15T17:39:44;12.80;99.90
21019;DHT22;10667;51.056;3.732;2022-11-15T17:42:09;12.90;99.90
21019;DHT22;10667;51.056;3.732;2022-11-15T17:44:35;12.90;99.90
21019;DHT22;10667;51.056;3.732;2022-11-15T17:47:01;13.00;99.90
21019;DHT22;10667;51.056;3.732;2022-11-15T17:49:26;13.00;99.90
21019;DHT22;10667;51.056;3.732;2022-11-15T17:51:52;13.00;99.90
21019;DHT22;10667;51.056;3.732;2022-11-15T17:54:18;12.90;99.90